Time;durP1;ratioP1;P1;durP2;ratioP2;P2;SDS_P1;SDS_P2;PMS_P1;PMS_P2;Temp;Humidity;BMP_temperature;BMP_pressure;BME280_temperature;BME280_humidity;BME280_pressure;Samples;Min_cycle;Max_cycle;Signal;HPM_P1;HPM_P2
2023/05/12 00:01:20;;;;;;;30.08;15.73;;;9.50;99.90;;;;;;4800341;29;20065;-61
2023/05/12 00:03:48;;;;;;;25.90;15.00;;;9.50;99.90;;;;;;4812410;29;20042;-61
2023/05/12 00:06:17;;;;;;;27.77;15.32;;;9.50;99.90;;;;;;4817578;29;20104;-62
2023/05/12 00:08:45;;;;;;;26.13;14.20;;;9.50;99.90;;;;;;4817682;29;20058;-61
2023/05/12 00:11:12;;;;;;;29.58;15.52;;;9.50;99.90;;;;;;4818993;29;20062;-62
2023/05/12 00:13:40;;;;;;;33.15;15.07;;;9.50;99.90;;;;;;4816987;29;20050;-61
2023/05/12 00:16:14;;;;;;;31.60;15.05;;;9.50;99.90;;;;;;4818410;29;20046;-60
2023/05/12 00:18:44;;;;;;;29.70;15.43;;;9.50;99.90;;;;;;4818882;29;20046;-61
2023/05/12 00:21:12;;;;;;;29.33;14.93;;;9.50;99.90;;;;;;4822315;29;20052;-61
2023/05/12 00:23:40;;;;;;;30.30;15.18;;;9.40;99.90;;;;;;4820491;29;20061;-62
2023/05/12 00:26:08;;;;;;;28.08;16.20;;;9.40;99.90;;;;;;4836731;29;20558;-60
2023/05/12 00:28:38;;;;;;;32.00;17.20;;;9.40;99.90;;;;;;4833341;29;20402;-60
2023/05/12 00:31:06;;;;;;;34.30;17.08;;;9.40;99.90;;;;;;4836616;29;20046;-62
2023/05/12 00:33:37;;;;;;;32.03;16.52;;;9.30;99.90;;;;;;4836964;29;20651;-61
2023/05/12 00:36:05;;;;;;;35.30;16.27;;;9.30;99.90;;;;;;4821041;29;20046;-61
2023/05/12 00:38:33;;;;;;;32.15;15.77;;;9.30;99.90;;;;;;4825604;29;20050;-61
2023/05/12 00:41:01;;;;;;;35.85;17.35;;;9.30;99.90;;;;;;4835333;29;20046;-60
2023/05/12 00:43:34;;;;;;;28.08;15.70;;;9.30;99.90;;;;;;4813626;29;20518;-61
2023/05/12 00:46:04;;;;;;;31.92;16.45;;;8.80;99.90;;;;;;4835865;29;20426;-61
2023/05/12 00:48:33;;;;;;;28.70;15.13;;;9.20;99.90;;;;;;4836183;29;20050;-60
2023/05/12 00:51:03;;;;;;;31.90;16.38;;;9.10;99.90;;;;;;4836132;29;20628;-61
2023/05/12 00:53:31;;;;;;;31.05;14.70;;;9.10;99.90;;;;;;4834915;29;20045;-62
2023/05/12 00:56:17;;;;;;;32.33;14.70;;;9.10;99.90;;;;;;4837557;29;20058;-61
2023/05/12 00:58:46;;;;;;;33.35;15.18;;;9.00;99.90;;;;;;4824120;29;20046;-61
2023/05/12 01:01:15;;;;;;;31.10;14.45;;;9.00;99.90;;;;;;4838383;29;20073;-61
2023/05/12 01:03:45;;;;;;;33.38;15.60;;;9.00;99.90;;;;;;4835464;29;20049;-62
2023/05/12 01:06:52;;;;;;;34.03;15.82;;;9.00;99.90;;;;;;4825868;29;20050;-62
2023/05/12 01:09:20;;;;;;;36.17;16.63;;;8.90;99.90;;;;;;4833721;29;20050;-60
2023/05/12 01:11:49;;;;;;;35.67;16.27;;;8.80;99.90;;;;;;4823104;29;20038;-60
2023/05/12 01:14:18;;;;;;;30.13;15.38;;;8.90;99.90;;;;;;4835806;29;20577;-60
2023/05/12 01:16:52;;;;;;;33.85;14.75;;;8.80;99.90;;;;;;4837164;29;20045;-61
2023/05/12 01:19:39;;;;;;;30.10;15.00;;;8.80;99.90;;;;;;4831573;29;20077;-61
2023/05/12 01:22:11;;;;;;;30.63;15.05;;;8.80;99.90;;;;;;4823130;29;20062;-61
2023/05/12 01:24:48;;;;;;;33.20;15.35;;;8.80;99.90;;;;;;4838272;29;20046;-62
2023/05/12 01:27:18;;;;;;;34.15;15.60;;;8.70;99.90;;;;;;4846660;29;20046;-60
2023/05/12 01:29:47;;;;;;;33.73;16.30;;;8.80;99.90;;;;;;4836042;29;20042;-62
2023/05/12 01:32:17;;;;;;;34.13;15.65;;;8.80;99.90;;;;;;4828966;29;21200;-60
2023/05/12 01:34:45;;;;;;;33.72;16.48;;;8.80;99.90;;;;;;4841033;29;20054;-60
2023/05/12 01:37:15;;;;;;;30.93;15.83;;;8.80;99.90;;;;;;4841434;29;20121;-60
2023/05/12 01:39:44;;;;;;;35.83;15.95;;;8.90;99.90;;;;;;4827126;29;20054;-60
2023/05/12 01:42:17;;;;;;;30.02;16.25;;;8.80;99.90;;;;;;4853136;29;20066;-61
2023/05/12 01:44:58;;;;;;;34.65;13.85;;;8.80;99.90;;;;;;4826108;29;20050;-63
2023/05/12 01:47:26;;;;;;;30.65;13.63;;;8.90;99.90;;;;;;4824145;29;20068;-61
2023/05/12 01:50:15;;;;;;;29.48;14.57;;;8.80;99.90;;;;;;4826914;29;20058;-60
2023/05/12 01:52:47;;;;;;;29.25;14.63;;;8.80;99.90;;;;;;4844597;29;20402;-60
2023/05/12 01:55:18;;;;;;;27.45;14.57;;;8.70;99.90;;;;;;4841817;29;20509;-59
2023/05/12 01:57:55;;;;;;;28.98;14.55;;;8.70;99.90;;;;;;4825019;29;20057;-60
2023/05/12 02:00:23;;;;;;;31.20;14.13;;;8.70;99.90;;;;;;4842494;29;20046;-60
2023/05/12 02:02:55;;;;;;;30.30;16.65;;;8.70;99.90;;;;;;4843193;29;20058;-60
2023/05/12 02:05:24;;;;;;;29.23;14.20;;;8.70;99.90;;;;;;4829798;29;20038;-60
2023/05/12 02:07:53;;;;;;;30.73;15.30;;;8.60;99.90;;;;;;4842503;29;20050;-61
2023/05/12 02:10:22;;;;;;;31.87;14.37;;;8.60;99.90;;;;;;4838895;29;20402;-61
2023/05/12 02:12:50;;;;;;;32.58;15.95;;;8.60;99.90;;;;;;4833173;29;20053;-59
2023/05/12 02:15:17;;;;;;;32.17;15.65;;;8.50;99.90;;;;;;4842703;29;20091;-59
2023/05/12 02:17:47;;;;;;;30.33;15.52;;;8.50;99.90;;;;;;4849937;29;20053;-60
2023/05/12 02:20:17;;;;;;;32.17;15.77;;;8.50;99.90;;;;;;4856646;29;20058;-59
2023/05/12 02:22:45;;;;;;;32.50;14.80;;;8.50;99.90;;;;;;4845132;29;20415;-60
2023/05/12 02:25:13;;;;;;;31.52;13.88;;;8.50;99.90;;;;;;4841535;29;20046;-60
2023/05/12 02:27:47;;;;;;;32.72;16.23;;;8.50;99.90;;;;;;4826117;29;20054;-60
2023/05/12 02:30:17;;;;;;;32.33;16.30;;;8.40;99.90;;;;;;4841231;29;20479;-60
2023/05/12 02:32:46;;;;;;;28.60;13.52;;;8.40;99.90;;;;;;4839793;29;20053;-60
2023/05/12 02:35:14;;;;;;;33.55;16.30;;;7.20;99.90;;;;;;4825601;29;20057;-60
2023/05/12 02:37:42;;;;;;;29.30;14.50;;;8.40;99.90;;;;;;4841305;29;20054;-60
2023/05/12 02:40:11;;;;;;;30.40;14.05;;;8.40;99.90;;;;;;4841813;29;20057;-60
2023/05/12 02:42:44;;;;;;;32.80;15.93;;;8.40;99.90;;;;;;4840846;29;20064;-60
2023/05/12 02:45:12;;;;;;;32.42;16.50;;;8.40;99.90;;;;;;4841124;29;20051;-60
2023/05/12 02:47:40;;;;;;;37.65;17.23;;;8.40;99.90;;;;;;4840640;29;20566;-60
2023/05/12 02:50:10;;;;;;;37.50;17.05;;;8.40;99.90;;;;;;4838398;29;20482;-60
2023/05/12 02:52:38;;;;;;;35.15;16.40;;;8.40;99.90;;;;;;4833776;29;20414;-60
2023/05/12 02:55:06;;;;;;;36.22;17.08;;;8.40;99.90;;;;;;4839643;29;20050;-60
2023/05/12 02:57:34;;;;;;;34.85;16.70;;;8.50;99.90;;;;;;4841193;29;20482;-59
2023/05/12 03:00:06;;;;;;;34.90;16.35;;;8.50;99.90;;;;;;4841890;29;20054;-59
2023/05/12 03:02:38;;;;;;;34.03;16.65;;;8.50;99.90;;;;;;4835720;29;20076;-59
2023/05/12 03:05:08;;;;;;;37.73;16.70;;;8.50;99.90;;;;;;4840471;29;20053;-60
2023/05/12 03:07:36;;;;;;;38.90;17.23;;;8.50;99.90;;;;;;4840089;29;20312;-61
2023/05/12 03:10:05;;;;;;;31.30;15.43;;;8.50;99.90;;;;;;4841650;29;20399;-60
2023/05/12 03:12:33;;;;;;;34.08;16.95;;;8.50;99.90;;;;;;4839258;29;20053;-61
2023/05/12 03:15:01;;;;;;;35.85;17.05;;;8.50;99.90;;;;;;4840348;29;20613;-61
2023/05/12 03:17:30;;;;;;;34.40;17.05;;;8.50;99.90;;;;;;4824734;29;20057;-60
2023/05/12 03:19:58;;;;;;;36.83;16.98;;;8.50;99.90;;;;;;4840751;29;20065;-60
2023/05/12 03:22:26;;;;;;;38.38;16.90;;;8.50;99.90;;;;;;4836653;29;20058;-59
2023/05/12 03:24:56;;;;;;;31.83;16.13;;;8.50;99.90;;;;;;4826879;29;20058;-60
2023/05/12 03:27:24;;;;;;;37.35;17.35;;;8.50;99.90;;;;;;4836800;29;20058;-59
2023/05/12 03:29:53;;;;;;;32.55;16.05;;;8.50;99.90;;;;;;4822246;29;20054;-59
2023/05/12 03:32:21;;;;;;;33.45;15.93;;;8.50;99.90;;;;;;4833903;29;20039;-59
2023/05/12 03:34:49;;;;;;;34.30;15.77;;;8.40;99.90;;;;;;4805068;29;20054;-59
2023/05/12 03:37:17;;;;;;;40.60;16.92;;;8.50;99.90;;;;;;4817933;29;20042;-59
2023/05/12 03:39:45;;;;;;;32.35;15.93;;;8.40;99.90;;;;;;4836652;29;20042;-60
2023/05/12 03:42:13;;;;;;;38.63;16.35;;;8.50;99.90;;;;;;4821744;29;20041;-60
2023/05/12 03:44:42;;;;;;;32.20;14.43;;;8.40;99.90;;;;;;4837014;29;20054;-60
2023/05/12 03:47:11;;;;;;;37.63;15.20;;;8.40;99.90;;;;;;4821918;29;20061;-61
2023/05/12 03:49:39;;;;;;;34.53;15.05;;;8.40;99.90;;;;;;4822308;29;20058;-60
2023/05/12 03:52:07;;;;;;;34.60;14.07;;;8.40;99.90;;;;;;4822283;29;20051;-60
2023/05/12 03:54:35;;;;;;;34.65;15.13;;;8.40;99.90;;;;;;4821208;29;20054;-60
2023/05/12 03:57:05;;;;;;;34.22;16.20;;;8.40;99.90;;;;;;4822858;29;20042;-60
2023/05/12 03:59:33;;;;;;;36.92;15.70;;;8.40;99.90;;;;;;4822542;29;20050;-59
2023/05/12 04:02:02;;;;;;;34.03;14.90;;;8.40;99.90;;;;;;4810119;29;20053;-59
2023/05/12 04:04:29;;;;;;;32.53;14.80;;;8.40;99.90;;;;;;4821579;29;20050;-60
2023/05/12 04:06:59;;;;;;;33.53;14.43;;;8.30;99.90;;;;;;4822833;29;20083;-59
2023/05/12 04:09:27;;;;;;;33.10;17.35;;;8.30;99.90;;;;;;4822834;29;20078;-61
2023/05/12 04:11:55;;;;;;;29.02;14.35;;;8.30;99.90;;;;;;4836125;29;20493;-61
2023/05/12 04:14:23;;;;;;;37.60;15.85;;;8.30;99.90;;;;;;4821195;29;20479;-60
2023/05/12 04:17:06;;;;;;;39.60;17.00;;;8.20;99.90;;;;;;4803233;29;20053;-60
2023/05/12 04:19:34;;;;;;;30.63;15.48;;;8.20;99.90;;;;;;4803539;29;20043;-60
2023/05/12 04:22:03;;;;;;;38.53;16.60;;;8.20;99.90;;;;;;4808243;29;20054;-60
2023/05/12 04:24:31;;;;;;;37.88;14.73;;;8.20;99.90;;;;;;4836170;29;20042;-59
2023/05/12 04:26:59;;;;;;;36.42;16.13;;;8.20;99.90;;;;;;4822423;29;20050;-60
2023/05/12 04:29:27;;;;;;;37.17;15.57;;;8.30;99.90;;;;;;4822605;29;20388;-61
2023/05/12 04:31:55;;;;;;;33.63;16.08;;;8.40;99.90;;;;;;4836076;29;20043;-59
2023/05/12 04:34:23;;;;;;;34.20;15.45;;;8.40;99.90;;;;;;4807945;29;20645;-60
2023/05/12 04:36:51;;;;;;;35.13;16.33;;;8.50;99.90;;;;;;4822731;29;20061;-62
2023/05/12 04:39:20;;;;;;;32.90;14.90;;;8.50;99.90;;;;;;4821800;29;20647;-60
2023/05/12 04:41:48;;;;;;;32.60;15.35;;;8.60;99.90;;;;;;4824778;29;20058;-59
2023/05/12 04:44:17;;;;;;;38.20;16.85;;;8.60;99.90;;;;;;4839630;29;20046;-59
2023/05/12 04:46:45;;;;;;;33.05;14.23;;;8.70;99.90;;;;;;4824445;29;20050;-60
2023/05/12 04:49:13;;;;;;;33.13;14.98;;;8.70;99.90;;;;;;4818594;29;20054;-60
2023/05/12 04:51:43;;;;;;;37.45;14.88;;;8.80;99.90;;;;;;4806270;29;20051;-60
2023/05/12 04:54:11;;;;;;;30.33;14.40;;;8.70;99.90;;;;;;4836200;29;20062;-60
2023/05/12 04:56:39;;;;;;;37.33;15.57;;;8.80;99.90;;;;;;4836231;29;20050;-61
2023/05/12 04:59:07;;;;;;;36.55;15.55;;;8.80;99.90;;;;;;4834342;29;20069;-60
2023/05/12 05:01:35;;;;;;;41.47;16.13;;;8.70;99.90;;;;;;4824048;29;20495;-60
2023/05/12 05:04:07;;;;;;;34.42;15.23;;;8.70;99.90;;;;;;4812656;29;20124;-59
2023/05/12 05:06:35;;;;;;;36.08;15.60;;;8.70;99.90;;;;;;4802046;29;20062;-60
2023/05/12 05:09:04;;;;;;;41.85;16.75;;;8.70;99.90;;;;;;4817826;29;20324;-60
2023/05/12 05:11:32;;;;;;;43.05;17.00;;;8.70;99.90;;;;;;4833974;29;20490;-61
2023/05/12 05:14:00;;;;;;;38.13;16.35;;;8.70;99.90;;;;;;4818511;29;20047;-61
2023/05/12 05:16:28;;;;;;;36.70;16.10;;;8.70;99.90;;;;;;4802520;29;20507;-61
2023/05/12 05:18:56;;;;;;;40.40;17.23;;;8.80;99.90;;;;;;4831478;29;20519;-59
2023/05/12 05:21:25;;;;;;;45.67;17.92;;;8.80;99.90;;;;;;4817479;29;20526;-61
2023/05/12 05:23:53;;;;;;;38.40;16.25;;;8.80;99.90;;;;;;4818322;29;20042;-61
2023/05/12 05:26:22;;;;;;;36.33;16.83;;;8.90;99.90;;;;;;4832236;29;20051;-59
2023/05/12 05:28:53;;;;;;;40.03;16.50;;;8.90;99.90;;;;;;4816426;29;20050;-60
2023/05/12 05:31:23;;;;;;;40.95;16.45;;;8.90;99.90;;;;;;4814535;29;20055;-61
2023/05/12 05:33:51;;;;;;;35.97;17.00;;;9.10;99.90;;;;;;4818282;29;20384;-60
2023/05/12 05:36:21;;;;;;;46.28;17.02;;;9.00;99.90;;;;;;4828730;29;20046;-61
2023/05/12 05:38:50;;;;;;;39.40;16.58;;;9.10;99.90;;;;;;4819434;29;20051;-59
2023/05/12 05:41:21;;;;;;;35.08;15.40;;;9.10;99.90;;;;;;4807708;29;20061;-59
2023/05/12 05:43:49;;;;;;;41.55;17.65;;;9.20;99.90;;;;;;4818749;29;20061;-60
2023/05/12 05:46:18;;;;;;;39.05;16.08;;;9.20;99.90;;;;;;4828471;29;20046;-60
2023/05/12 05:48:47;;;;;;;36.67;16.77;;;9.20;99.90;;;;;;4816580;29;20057;-60
2023/05/12 05:51:16;;;;;;;35.65;15.60;;;9.30;99.90;;;;;;4834556;29;20039;-60
2023/05/12 05:53:44;;;;;;;42.03;18.05;;;9.40;99.90;;;;;;4818260;29;20403;-60
2023/05/12 05:56:13;;;;;;;40.10;15.97;;;9.40;99.90;;;;;;4834365;29;20051;-61
2023/05/12 05:58:42;;;;;;;35.17;15.87;;;9.50;99.90;;;;;;4812140;29;20833;-61
2023/05/12 06:01:11;;;;;;;35.77;15.50;;;9.60;99.90;;;;;;4814027;29;20834;-61
2023/05/12 06:03:40;;;;;;;39.08;16.15;;;9.80;99.90;;;;;;4818337;29;20054;-60
2023/05/12 06:06:09;;;;;;;31.50;14.55;;;9.70;99.90;;;;;;4820593;29;20073;-61
2023/05/12 06:08:37;;;;;;;34.25;14.00;;;9.80;99.90;;;;;;4834861;29;20521;-60
2023/05/12 06:11:05;;;;;;;32.35;14.63;;;9.80;99.90;;;;;;4811114;29;20059;-60
2023/05/12 06:13:33;;;;;;;29.30;13.55;;;9.90;99.90;;;;;;4817103;29;20403;-59
2023/05/12 06:16:00;;;;;;;28.33;13.45;;;9.80;99.90;;;;;;4808403;29;20080;-61
2023/05/12 06:18:28;;;;;;;28.38;13.27;;;9.90;99.90;;;;;;4817631;29;20051;-60
2023/05/12 06:20:56;;;;;;;31.35;12.57;;;9.90;99.90;;;;;;4816044;29;20058;-59
2023/05/12 06:23:24;;;;;;;23.70;11.70;;;9.90;99.90;;;;;;4838812;29;20050;-61
2023/05/12 06:25:52;;;;;;;26.30;11.15;;;9.90;99.90;;;;;;4824878;29;20077;-60
2023/05/12 06:28:20;;;;;;;29.98;12.20;;;9.90;99.90;;;;;;4831078;29;20069;-61
2023/05/12 06:30:48;;;;;;;27.65;12.70;;;9.90;99.90;;;;;;4834926;29;20505;-59
2023/05/12 06:33:17;;;;;;;26.70;12.68;;;10.00;99.90;;;;;;4824647;29;20482;-60
2023/05/12 06:35:45;;;;;;;25.15;11.23;;;10.10;99.90;;;;;;4824868;29;20049;-60
2023/05/12 06:38:13;;;;;;;24.50;11.45;;;10.10;99.90;;;;;;4832386;29;20050;-60
2023/05/12 06:40:44;;;;;;;29.98;12.90;;;10.20;99.90;;;;;;4819987;29;20372;-60
2023/05/12 06:43:12;;;;;;;20.23;10.60;;;10.30;99.90;;;;;;4837941;29;20046;-60
2023/05/12 06:45:44;;;;;;;20.52;10.13;;;10.40;99.90;;;;;;4835793;29;20050;-61
2023/05/12 06:48:12;;;;;;;19.80;9.60;;;10.50;99.90;;;;;;4837673;29;20056;-61
2023/05/12 06:50:41;;;;;;;24.05;8.82;;;10.50;99.90;;;;;;4838480;29;20545;-61
2023/05/12 06:53:09;;;;;;;20.65;9.30;;;10.70;99.90;;;;;;4835999;29;20654;-60
2023/05/12 06:55:37;;;;;;;16.83;9.55;;;10.70;99.90;;;;;;4822219;29;20062;-60
2023/05/12 06:58:05;;;;;;;22.55;10.20;;;;;;;;;;4835621;29;20054;-62
2023/05/12 07:00:34;;;;;;;20.48;9.45;;;10.90;99.90;;;;;;4829203;29;20240;-59
2023/05/12 07:03:03;;;;;;;21.30;10.27;;;10.90;99.90;;;;;;4835395;29;20046;-61
2023/05/12 07:05:31;;;;;;;19.70;8.27;;;11.00;99.90;;;;;;4834178;29;20417;-59
2023/05/12 07:07:59;;;;;;;19.80;9.00;;;10.90;99.90;;;;;;4837300;29;20541;-61
2023/05/12 07:10:27;;;;;;;20.85;8.63;;;11.00;99.90;;;;;;4836953;29;20046;-61
2023/05/12 07:12:55;;;;;;;17.48;8.48;;;11.10;99.90;;;;;;4825225;29;20053;-61
2023/05/12 07:15:23;;;;;;;17.30;9.27;;;11.20;99.90;;;;;;4829910;29;20046;-61
2023/05/12 07:17:51;;;;;;;17.23;8.80;;;11.20;99.90;;;;;;4831309;29;20053;-61
2023/05/12 07:20:22;;;;;;;18.55;8.85;;;10.30;99.90;;;;;;4831421;29;20053;-60
2023/05/12 07:22:51;;;;;;;16.80;9.48;;;11.40;99.90;;;;;;4832206;29;20061;-59
2023/05/12 07:25:20;;;;;;;13.10;7.95;;;11.50;99.90;;;;;;4825259;29;20054;-60
2023/05/12 07:27:49;;;;;;;14.32;8.90;;;11.70;99.90;;;;;;4832583;29;20050;-59
2023/05/12 07:30:17;;;;;;;18.38;7.90;;;11.90;99.90;;;;;;4828597;29;20053;-61
2023/05/12 07:32:45;;;;;;;16.23;7.43;;;12.00;99.90;;;;;;4829513;29;20490;-61
2023/05/12 07:35:13;;;;;;;15.65;7.43;;;12.10;99.90;;;;;;4829472;29;20058;-61
2023/05/12 07:37:41;;;;;;;12.27;6.53;;;12.30;99.90;;;;;;4829062;29;20057;-60
2023/05/12 07:40:09;;;;;;;12.15;6.55;;;12.40;99.90;;;;;;4834978;29;20498;-61
2023/05/12 07:42:46;;;;;;;12.48;6.18;;;12.50;99.90;;;;;;4837264;29;20057;-61
2023/05/12 07:45:21;;;;;;;13.70;6.13;;;12.70;99.90;;;;;;4832428;29;20073;-61
2023/05/12 07:47:50;;;;;;;10.68;5.53;;;12.80;99.90;;;;;;4812930;29;20054;-62
2023/05/12 07:50:18;;;;;;;8.13;5.18;;;13.00;99.90;;;;;;4828900;29;20541;-59
2023/05/12 07:52:48;;;;;;;15.60;6.18;;;13.20;99.90;;;;;;4832765;29;20054;-63
2023/05/12 07:55:18;;;;;;;9.55;5.72;;;13.40;99.90;;;;;;4833107;29;20050;-63
2023/05/12 07:57:47;;;;;;;13.05;6.05;;;13.60;99.90;;;;;;4831906;29;20054;-61
2023/05/12 08:00:15;;;;;;;11.15;4.80;;;13.90;99.90;;;;;;4830580;29;20057;-61
2023/05/12 08:02:43;;;;;;;10.57;5.50;;;14.10;99.90;;;;;;4825137;29;20068;-61
2023/05/12 08:05:11;;;;;;;8.93;4.90;;;14.20;99.90;;;;;;4832210;29;20269;-64
2023/05/12 08:07:42;;;;;;;8.75;4.85;;;14.40;99.90;;;;;;4827089;29;20061;-62
2023/05/12 08:10:11;;;;;;;11.98;4.07;;;14.50;99.90;;;;;;4829070;29;20060;-62
2023/05/12 08:12:40;;;;;;;8.25;4.05;;;14.70;99.90;;;;;;4841918;29;20050;-62
2023/05/12 08:15:08;;;;;;;7.40;4.47;;;14.60;99.90;;;;;;4842415;29;20077;-63
2023/05/12 08:17:36;;;;;;;5.93;3.63;;;14.70;99.90;;;;;;4826445;29;20046;-61
2023/05/12 08:20:05;;;;;;;7.40;4.05;;;14.60;99.90;;;;;;4842090;29;20517;-62
2023/05/12 08:22:33;;;;;;;9.23;3.45;;;14.60;99.90;;;;;;4842216;29;20061;-61
2023/05/12 08:25:01;;;;;;;7.53;3.72;;;14.70;99.90;;;;;;4842796;29;20520;-61
2023/05/12 08:27:31;;;;;;;4.40;3.47;;;14.70;99.90;;;;;;4840740;29;20058;-62
2023/05/12 08:29:59;;;;;;;5.65;3.17;;;14.80;99.90;;;;;;4835494;29;20415;-62
2023/05/12 08:32:26;;;;;;;5.88;3.95;;;14.80;99.90;;;;;;4840702;29;20454;-60
2023/05/12 08:34:54;;;;;;;5.78;3.67;;;15.00;99.90;;;;;;4821046;29;20054;-62
2023/05/12 08:37:23;;;;;;;7.00;3.10;;;15.00;99.90;;;;;;4835686;29;20058;-60
2023/05/12 08:39:51;;;;;;;4.97;2.67;;;15.20;99.90;;;;;;4841146;29;20046;-62
2023/05/12 08:42:42;;;;;;;6.15;3.55;;;15.40;99.90;;;;;;4842484;29;20058;-60
2023/05/12 08:45:10;;;;;;;3.72;3.08;;;15.40;99.90;;;;;;4834925;29;20398;-61
2023/05/12 08:47:41;;;;;;;6.18;3.50;;;15.40;99.90;;;;;;4833928;29;20061;-61
2023/05/12 08:50:11;;;;;;;5.18;3.38;;;15.40;99.90;;;;;;4840148;29;20053;-62
2023/05/12 08:52:39;;;;;;;4.45;3.03;;;15.40;99.90;;;;;;4840885;29;20683;-62
2023/05/12 08:55:08;;;;;;;4.07;2.60;;;15.40;99.90;;;;;;4839257;29;20054;-61
2023/05/12 08:57:39;;;;;;;;;;;15.30;99.90;;;;;;4823749;29;20160;-60
2023/05/12 09:00:13;;;;;;;4.57;2.67;;;15.30;99.90;;;;;;4824919;29;19932;-60
2023/05/12 09:02:42;;;;;;;5.15;2.00;;;15.40;99.90;;;;;;4825768;29;20051;-61
2023/05/12 09:05:21;;;;;;;3.50;3.03;;;15.60;99.90;;;;;;4834099;29;20061;-60
2023/05/12 09:07:53;;;;;;;5.97;4.28;;;15.70;99.90;;;;;;4840340;29;20038;-61
2023/05/12 09:10:23;;;;;;;4.88;3.75;;;15.90;99.90;;;;;;4815079;29;20058;-62
2023/05/12 09:13:19;;;;;;;10.10;3.80;;;16.00;99.90;;;;;;4832096;29;20074;-61
2023/05/12 09:15:48;;;;;;;5.82;3.70;;;16.10;99.90;;;;;;4842031;29;20056;-64
2023/05/12 09:18:16;;;;;;;3.95;2.72;;;16.20;99.90;;;;;;4834965;29;20054;-61
2023/05/12 09:20:43;;;;;;;3.05;1.85;;;16.30;99.90;;;;;;4839029;29;20049;-61
2023/05/12 09:23:21;;;;;;;6.13;2.13;;;16.30;99.90;;;;;;4839359;29;20545;-63
2023/05/12 09:26:07;;;;;;;3.75;2.00;;;16.40;99.90;;;;;;4825113;29;20054;-62
2023/05/12 09:28:38;;;;;;;4.65;1.90;;;16.30;99.90;;;;;;4838391;29;20057;-60
2023/05/12 09:31:22;;;;;;;4.18;1.80;;;16.40;99.90;;;;;;4838778;29;20050;-61
2023/05/12 09:33:51;;;;;;;5.53;1.95;;;16.40;99.90;;;;;;4838060;29;20478;-62
2023/05/12 09:36:21;;;;;;;3.77;1.50;;;16.50;99.90;;;;;;4843743;29;20053;-61
2023/05/12 09:38:59;;;;;;;4.90;2.20;;;16.70;99.90;;;;;;4822111;29;20065;-61
2023/05/12 09:41:27;;;;;;;7.05;1.85;;;;;;;;;;4827926;29;20050;-62
2023/05/12 09:43:58;;;;;;;4.78;1.85;;;17.10;99.90;;;;;;4822843;29;20073;-61
2023/05/12 09:46:26;;;;;;;5.88;2.05;;;17.30;99.90;;;;;;4838412;29;20494;-61
2023/05/12 09:48:56;;;;;;;5.28;1.85;;;17.40;99.90;;;;;;4835740;29;20490;-63
2023/05/12 09:51:25;;;;;;;3.33;2.40;;;17.70;99.90;;;;;;4821685;29;20061;-62
2023/05/12 09:53:53;;;;;;;4.45;1.90;;;17.60;99.90;;;;;;4837987;29;20494;-63
2023/05/12 09:56:21;;;;;;;3.83;2.15;;;17.70;99.90;;;;;;4837124;29;20058;-63
2023/05/12 09:58:49;;;;;;;6.05;2.40;;;17.80;99.90;;;;;;4832654;29;20051;-60
2023/05/12 10:01:19;;;;;;;5.60;2.28;;;17.70;99.90;;;;;;4823971;29;20511;-62
2023/05/12 10:03:54;;;;;;;6.40;2.30;;;17.60;99.90;;;;;;4833242;29;20065;-62
2023/05/12 10:06:29;;;;;;;4.90;2.15;;;17.40;99.90;;;;;;4826593;29;20061;-62
2023/05/12 10:09:18;;;;;;;5.03;2.22;;;17.30;99.90;;;;;;4838583;29;20071;-62
2023/05/12 10:11:48;;;;;;;7.27;2.57;;;17.30;99.90;;;;;;4813532;29;20054;-62
2023/05/12 10:14:22;;;;;;;5.95;2.65;;;17.30;99.90;;;;;;4833033;29;20056;-62
2023/05/12 10:16:50;;;;;;;;;;;17.40;99.90;;;;;;4827414;29;20058;-63
2023/05/12 10:19:19;;;;;;;6.25;2.60;;;17.60;99.90;;;;;;4829645;29;20366;-62
2023/05/12 10:21:48;;;;;;;5.70;2.10;;;17.70;99.90;;;;;;4828225;29;20093;-64
2023/05/12 10:24:16;;;;;;;3.30;2.05;;;17.70;99.90;;;;;;4830387;29;20414;-64
2023/05/12 10:26:44;;;;;;;4.20;2.08;;;17.80;99.90;;;;;;4817969;29;20054;-63
2023/05/12 10:29:13;;;;;;;3.60;2.10;;;18.00;99.90;;;;;;4832059;29;20054;-63
2023/05/12 10:31:43;;;;;;;4.45;1.88;;;18.20;99.90;;;;;;4833949;29;20054;-64
2023/05/12 10:34:20;;;;;;;11.63;2.00;;;18.30;99.90;;;;;;4831768;29;20513;-64
2023/05/12 10:36:52;;;;;;;8.38;1.95;;;18.40;99.90;;;;;;4835647;29;20153;-64
2023/05/12 10:39:28;;;;;;;3.08;1.60;;;18.50;99.90;;;;;;4837113;29;20046;-64
2023/05/12 10:42:07;;;;;;;8.27;2.38;;;18.60;99.90;;;;;;4832521;29;20561;-63
2023/05/12 10:44:36;;;;;;;20.60;5.03;;;20.00;99.90;;;;;;4825933;29;20529;-63
2023/05/12 10:47:16;;;;;;;5.50;2.15;;;18.70;99.90;;;;;;4834437;29;20050;-63
2023/05/12 10:49:45;;;;;;;4.90;1.92;;;18.80;99.90;;;;;;4833370;29;20054;-63
2023/05/12 10:52:19;;;;;;;3.90;2.03;;;19.00;99.90;;;;;;4834754;29;20046;-62
2023/05/12 10:54:46;;;;;;;4.55;1.83;;;19.10;99.90;;;;;;4837861;29;20046;-63
2023/05/12 10:57:19;;;;;;;12.00;2.30;;;19.20;99.90;;;;;;4833100;29;20084;-64
2023/05/12 10:59:55;;;;;;;6.63;2.00;;;19.40;99.90;;;;;;4825039;29;20048;-63
2023/05/12 11:02:32;;;;;;;6.68;2.08;;;19.50;99.90;;;;;;4835691;29;20046;-64
2023/05/12 11:05:10;;;;;;;7.72;2.35;;;19.70;99.90;;;;;;4836784;29;20045;-63
2023/05/12 11:07:45;;;;;;;2.53;1.50;;;19.90;99.90;;;;;;4831575;29;20063;-61
2023/05/12 11:10:14;;;;;;;5.65;1.33;;;20.00;99.90;;;;;;4838016;29;20050;-63
2023/05/12 11:12:44;;;;;;;;;;;20.20;99.90;;;;;;4837418;29;20046;-63
2023/05/12 11:15:13;;;;;;;2.60;1.20;;;20.30;99.90;;;;;;4836662;29;19928;-64
2023/05/12 11:17:43;;;;;;;3.22;1.10;;;20.40;99.90;;;;;;4833794;29;20049;-63
2023/05/12 11:20:24;;;;;;;2.42;1.10;;;20.50;99.90;;;;;;4832355;29;20057;-63
2023/05/12 11:22:54;;;;;;;3.78;1.42;;;20.60;99.90;;;;;;4824646;29;20062;-62
2023/05/12 11:25:22;;;;;;;3.90;1.42;;;20.70;99.90;;;;;;4823744;29;20053;-64
2023/05/12 11:27:50;;;;;;;2.15;1.45;;;20.70;99.90;;;;;;4829441;29;20211;-63
2023/05/12 11:30:18;;;;;;;4.55;1.40;;;20.60;99.90;;;;;;4826337;29;20042;-63
2023/05/12 11:32:47;;;;;;;3.53;1.10;;;20.60;99.90;;;;;;4830818;29;20058;-63
2023/05/12 11:35:18;;;;;;;2.67;2.05;;;20.60;99.90;;;;;;4833767;29;20046;-63
2023/05/12 11:37:46;;;;;;;2.78;1.60;;;20.50;99.90;;;;;;4836111;29;20061;-64
2023/05/12 11:40:21;;;;;;;3.00;1.70;;;20.50;99.90;;;;;;4818912;29;20050;-63
2023/05/12 11:42:51;;;;;;;6.18;2.08;;;20.60;99.90;;;;;;4825379;29;20632;-64
2023/05/12 11:45:20;;;;;;;3.63;1.88;;;20.90;99.90;;;;;;4837489;29;20046;-64
2023/05/12 11:47:52;;;;;;;2.35;1.80;;;20.90;99.90;;;;;;4836114;29;20046;-64
2023/05/12 11:50:23;;;;;;;4.93;1.50;;;21.30;99.90;;;;;;4837355;29;20046;-64
2023/05/12 11:52:52;;;;;;;4.30;2.20;;;21.30;99.90;;;;;;4836160;29;20050;-64
2023/05/12 11:55:22;;;;;;;4.63;2.25;;;21.60;99.90;;;;;;4824461;29;20058;-63
2023/05/12 11:57:58;;;;;;;2.30;1.85;;;21.80;99.90;;;;;;4831188;29;20398;-64
2023/05/12 12:00:35;;;;;;;5.72;1.50;;;21.80;99.90;;;;;;4836608;29;20057;-63
2023/05/12 12:03:13;;;;;;;2.35;1.40;;;21.70;99.90;;;;;;4833879;29;20235;-63
2023/05/12 12:05:44;;;;;;;1.95;1.60;;;21.50;99.90;;;;;;4828517;29;20395;-63
2023/05/12 12:08:14;;;;;;;2.97;1.70;;;21.30;99.90;;;;;;4833252;29;20056;-63
2023/05/12 12:10:44;;;;;;;4.30;1.73;;;21.20;99.90;;;;;;4819420;29;20066;-63
2023/05/12 12:13:20;;;;;;;2.25;1.70;;;21.20;99.90;;;;;;4827924;29;20049;-63
2023/05/12 12:15:48;;;;;;;3.65;1.70;;;21.50;99.90;;;;;;4837137;29;20049;-63
2023/05/12 12:18:17;;;;;;;3.45;1.60;;;22.40;99.90;;;;;;4835978;29;20061;-64
2023/05/12 12:20:46;;;;;;;4.50;2.17;;;22.60;99.90;;;;;;4834758;29;20141;-64
2023/05/12 12:23:14;;;;;;;2.80;1.73;;;22.50;99.90;;;;;;4832762;29;20049;-63
2023/05/12 12:25:42;;;;;;;2.50;1.98;;;22.50;99.90;;;;;;4818870;29;20217;-62
2023/05/12 12:28:11;;;;;;;5.15;2.40;;;22.50;98.60;;;;;;4836824;29;20050;-64
2023/05/12 12:30:41;;;;;;;4.82;2.72;;;22.70;99.00;;;;;;4827047;29;20081;-64
2023/05/12 12:33:13;;;;;;;4.28;2.47;;;22.80;99.10;;;;;;4833911;29;20057;-65
2023/05/12 12:35:41;;;;;;;4.80;2.55;;;22.80;98.80;;;;;;4836552;29;20042;-62
2023/05/12 12:38:09;;;;;;;2.97;2.67;;;22.70;99.10;;;;;;4834994;29;20517;-63
2023/05/12 12:40:39;;;;;;;6.15;2.72;;;22.30;96.70;;;;;;4833147;29;20053;-63
2023/05/12 12:43:07;;;;;;;3.33;2.00;;;21.60;99.70;;;;;;4836780;29;20053;-62
2023/05/12 12:45:35;;;;;;;2.88;2.10;;;21.60;99.90;;;;;;4836934;29;20050;-63
2023/05/12 12:48:05;;;;;;;3.47;2.67;;;21.40;99.90;;;;;;4837081;29;20073;-62
2023/05/12 12:50:34;;;;;;;7.65;2.58;;;20.90;99.90;;;;;;4832213;29;20050;-63
2023/05/12 12:53:02;;;;;;;3.53;3.07;;;20.90;99.90;;;;;;4834636;29;20513;-63
2023/05/12 12:55:30;;;;;;;4.45;3.22;;;20.70;99.90;;;;;;4821548;29;20490;-63